CBY5 weather

Seal Cove (Coast Guard) Heliport
Prince Rupert, British Columbia, Canada

Public forecast

Using degrees Celsius for public forecast. Weather courtesy of forecast.io.

METAR (pilot weather report)

Closest report is Prince Rupert Airport, 6.5 nm (12.0 km) WSW. Retrieved 2019/07/17 03:11 UTC (30 minutes ago):

CYPR 170311Z AUTO 12005KT 6SM -RA BR SCT039 BKN055 OVC074 14/14 A2971 RMK SLP063 DENSITY ALT 200FT

TAF (pilot weather forecast)

Closest forecast is Prince Rupert Airport, 6.5 nm (12.0 km) WSW. Retrieved 2019/07/17 01:39 UTC (2 hours ago):

TAF TAF CYPR 170038Z 1701/1713 13010KT P6SM -RA SCT012 BKN025 OVC040 TEMPO 1701/1713 4SM -RA BR BKN008 OVC020 RMK FCST BASED ON AUTO OBS. NXT FCST BY 170700Z